Time;durP1;ratioP1;P1;durP2;ratioP2;P2;SDS_P1;SDS_P2;PMS_P1;PMS_P2;Temp;Humidity;BMP_temperature;BMP_pressure;BME280_temperature;BME280_humidity;BME280_pressure;Samples;Min_cycle;Max_cycle;Signal;HPM_P1;HPM_P2
2023/07/17 00:01:17;;;;;;;70.80;63.53;;;;;;;10.89;100.00;100631.59;5074433;28;20032;-91
2023/07/17 00:03:43;;;;;;;71.10;63.83;;;;;;;10.81;100.00;100628.97;5053582;28;20483;-91
2023/07/17 00:06:09;;;;;;;71.05;63.72;;;;;;;10.70;100.00;100627.53;5063578;28;20039;-93
2023/07/17 00:08:35;;;;;;;71.40;64.05;;;;;;;10.59;100.00;100622.59;5057586;28;20029;-90
2023/07/17 00:11:00;;;;;;;72.15;64.60;;;;;;;10.45;100.00;100626.03;5057479;28;20059;-93
2023/07/17 00:13:26;;;;;;;72.30;64.75;;;;;;;10.31;100.00;100614.19;5075307;28;20078;-89
2023/07/17 00:15:51;;;;;;;71.15;63.80;;;;;;;10.29;100.00;100621.59;5073379;28;20395;-90
2023/07/17 00:18:17;;;;;;;73.00;65.35;;;;;;;10.27;100.00;100624.47;5073617;28;20032;-91
2023/07/17 00:20:43;;;;;;;72.75;65.10;;;;;;;10.41;100.00;100628.25;5073356;28;20454;-90
2023/07/17 00:23:08;;;;;;;73.68;65.93;;;;;;;10.48;100.00;100621.16;5057134;28;20032;-93
2023/07/17 00:25:34;;;;;;;72.65;65.00;;;;;;;10.52;100.00;100622.44;5073805;28;20111;-90
2023/07/17 00:27:59;;;;;;;73.82;65.97;;;;;;;10.53;100.00;100634.03;5057110;28;20040;-89
2023/07/17 00:30:25;;;;;;;73.30;65.55;;;;;;;10.45;100.00;100632.25;5074620;28;20063;-90
2023/07/17 00:32:51;;;;;;;74.82;66.78;;;;;;;10.43;100.00;100634.28;5074954;28;20036;-90
2023/07/17 00:35:16;;;;;;;76.20;67.95;;;;;;;10.33;100.00;100639.03;5055920;28;20086;-89
2023/07/17 00:37:42;;;;;;;76.43;68.07;;;;;;;10.16;100.00;100626.66;5053810;28;20479;-92
2023/07/17 00:40:08;;;;;;;76.20;67.90;;;;;;;10.19;100.00;100650.50;5053712;28;20112;-89
2023/07/17 00:42:34;;;;;;;79.10;70.03;;;;;;;10.10;100.00;100647.84;5053611;28;20467;-93
2023/07/17 00:45:00;;;;;;;83.57;71.88;;;;;;;10.06;100.00;100637.66;5038059;28;20044;-86
2023/07/17 00:47:27;;;;;;;82.45;71.93;;;;;;;10.05;100.00;100630.59;5040497;28;20032;-90
2023/07/17 00:49:53;;;;;;;88.85;74.60;;;;;;;10.07;100.00;100637.47;5073050;28;20036;-89
2023/07/17 00:52:19;;;;;;;85.00;72.95;;;;;;;10.04;100.00;100629.75;5073593;28;20046;-89
2023/07/17 00:54:45;;;;;;;86.18;73.82;;;;;;;10.16;100.00;100648.16;5057623;28;20437;-92
2023/07/17 00:57:12;;;;;;;90.72;75.47;;;;;;;10.19;100.00;100653.19;5039458;28;20434;-91
2023/07/17 00:59:39;;;;;;;85.97;73.60;;;;;;;10.21;100.00;100652.00;5040121;28;20037;-89
2023/07/17 01:02:04;;;;;;;82.60;71.72;;;;;;;10.28;100.00;100639.56;5072672;28;20044;-89
2023/07/17 01:04:30;;;;;;;81.32;71.38;;;;;;;10.38;100.00;100651.97;5073213;28;20044;-94
2023/07/17 01:06:55;;;;;;;77.38;68.93;;;;;;;10.48;100.00;100648.03;5073370;28;20032;-90
2023/07/17 01:09:21;;;;;;;76.05;67.82;;;;;;;10.62;100.00;100659.03;5036251;28;20082;-89
2023/07/17 01:11:48;;;;;;;74.75;66.70;;;;;;;10.69;100.00;100657.28;5053061;28;20480;-88
2023/07/17 01:14:18;;;;;;;75.22;67.18;;;;;;;10.72;100.00;100660.47;5020170;28;20047;-91
2023/07/17 01:16:45;;;;;;;72.95;65.30;;;;;;;10.82;100.00;100664.75;5036778;28;20032;-89
2023/07/17 01:19:11;;;;;;;71.00;63.67;;;;;;;10.82;100.00;100659.38;5055836;28;20409;-90
2023/07/17 01:21:44;;;;;;;71.03;63.72;;;;;;;10.83;100.00;100661.06;5073250;28;20082;-88
2023/07/17 01:24:09;;;;;;;71.03;63.78;;;;;;;10.86;100.00;100676.84;5040085;28;20040;-88
2023/07/17 01:26:35;;;;;;;67.82;61.08;;;;;;;10.73;100.00;100655.91;5073228;28;20036;-89
2023/07/17 01:29:01;;;;;;;65.97;59.53;;;;;;;10.64;100.00;100668.59;5055936;28;20032;-91
2023/07/17 01:31:26;;;;;;;66.25;59.80;;;;;;;10.48;100.00;100676.78;5073032;28;20120;-89
2023/07/17 01:33:52;;;;;;;67.20;60.55;;;;;;;10.30;100.00;100675.19;5056283;28;20040;-89
2023/07/17 01:36:18;;;;;;;68.10;61.30;;;;;;;10.18;100.00;100668.47;5039952;28;20032;-92
2023/07/17 01:38:43;;;;;;;67.97;61.17;;;;;;;9.96;100.00;100650.47;5072460;28;20032;-91
2023/07/17 01:41:09;;;;;;;69.97;62.85;;;;;;;9.93;100.00;100674.97;5072743;28;20121;-88
2023/07/17 01:43:34;;;;;;;70.45;63.20;;;;;;;9.81;100.00;100663.75;5072864;28;20173;-89
2023/07/17 01:46:00;;;;;;;69.93;62.78;;;;;;;9.93;100.00;100675.81;5056108;28;20032;-90
2023/07/17 01:48:26;;;;;;;71.15;63.83;;;;;;;9.95;100.00;100670.25;5052536;28;20021;-90
2023/07/17 01:50:51;;;;;;;71.63;64.18;;;;;;;9.98;100.00;100668.06;5036112;28;20467;-89
2023/07/17 01:53:18;;;;;;;69.85;62.70;;;;;;;10.09;100.00;100673.06;5054035;28;20464;-91
2023/07/17 01:55:44;;;;;;;69.75;62.67;;;;;;;10.11;100.00;100676.41;5066430;28;20047;-89
2023/07/17 01:58:10;;;;;;;68.18;61.33;;;;;;;10.24;100.00;100667.78;5056217;28;20036;-88
2023/07/17 02:00:35;;;;;;;68.10;61.25;;;;;;;10.32;100.00;100672.31;5055688;28;20031;-88
2023/07/17 02:03:04;;;;;;;66.45;59.90;;;;;;;10.12;100.00;100645.00;5072499;28;20441;-87
2023/07/17 02:05:49;;;;;;;66.75;60.15;;;;;;;10.19;100.00;100661.25;5072966;28;20056;-86
2023/07/17 02:08:15;;;;;;;66.50;59.95;;;;;;;10.05;100.00;100669.03;5055594;28;20050;-88
2023/07/17 02:10:42;;;;;;;68.15;61.35;;;;;;;10.11;100.00;100664.84;5072539;28;20475;-87
2023/07/17 02:13:08;;;;;;;67.60;60.85;;;;;;;10.22;100.00;100671.66;5072888;28;20056;-90
2023/07/17 02:15:34;;;;;;;66.35;59.80;;;;;;;10.11;100.00;100660.28;5058965;28;20074;-88
2023/07/17 02:17:59;;;;;;;65.05;58.72;;;;;;;9.99;100.00;100640.19;5075517;28;20509;-89
2023/07/17 02:20:25;;;;;;;66.75;60.20;;;;;;;10.27;100.00;100688.09;5077147;28;20036;-87
2023/07/17 02:22:51;;;;;;;67.40;60.60;;;;;;;10.36;100.00;100681.69;5042089;28;20051;-88
2023/07/17 02:25:17;;;;;;;63.70;57.65;;;;;;;10.47;100.00;100678.59;5042860;28;20383;-91
2023/07/17 02:27:42;;;;;;;62.40;56.55;;;;;;;10.43;100.00;100658.47;5042932;28;20028;-87
2023/07/17 02:30:08;;;;;;;61.22;55.58;;;;;;;10.57;100.00;100668.47;5059323;28;20035;-91
2023/07/17 02:32:34;;;;;;;58.05;52.90;;;;;;;10.57;100.00;100673.84;5075984;28;20490;-89
2023/07/17 02:35:00;;;;;;;61.40;55.75;;;;;;;10.55;100.00;100675.84;5076016;28;20502;-89
2023/07/17 02:37:26;;;;;;;59.85;54.40;;;;;;;10.53;100.00;100667.16;5059624;28;20056;-90
2023/07/17 02:39:52;;;;;;;58.85;53.60;;;;;;;10.58;100.00;100680.03;5075704;28;20058;-92
2023/07/17 02:42:18;;;;;;;59.25;53.90;;;;;;;10.41;100.00;100684.69;5059144;28;20108;-88
2023/07/17 02:44:44;;;;;;;59.47;54.13;;;;;;;10.21;100.00;100670.81;5058592;28;20503;-91
2023/07/17 02:47:10;;;;;;;59.78;54.35;;;;;;;10.10;100.00;100682.78;5038988;28;20047;-87
2023/07/17 02:49:37;;;;;;;59.58;54.20;;;;;;;10.08;100.00;100690.19;5053216;28;20387;-90
2023/07/17 02:52:03;;;;;;;60.65;55.10;;;;;;;10.06;100.00;100680.63;5038849;28;20036;-88
2023/07/17 02:54:29;;;;;;;58.80;53.55;;;;;;;10.17;100.00;100690.16;5024409;28;20033;-89
2023/07/17 02:56:55;;;;;;;57.63;52.58;;;;;;;10.26;100.00;100686.41;5056090;28;20051;-89
2023/07/17 02:59:20;;;;;;;59.10;53.75;;;;;;;10.49;100.00;100705.31;5055299;28;20025;-91
2023/07/17 03:01:48;;;;;;;56.30;51.45;;;;;;;10.57;100.00;100697.19;5056444;28;20032;-85
2023/07/17 03:04:14;;;;;;;53.25;48.90;;;;;;;10.63;100.00;100691.09;5058839;28;20119;-87
2023/07/17 03:06:40;;;;;;;53.75;49.30;;;;;;;10.67;100.00;100688.91;5043039;28;20063;-86
2023/07/17 03:09:05;;;;;;;51.17;47.13;;;;;;;10.69;100.00;100689.56;5042711;28;20040;-90
2023/07/17 03:11:31;;;;;;;51.28;47.22;;;;;;;10.68;100.00;100690.56;5058919;28;20518;-88
2023/07/17 03:13:57;;;;;;;49.97;46.13;;;;;;;10.67;100.00;100692.44;5075422;28;20119;-91
2023/07/17 03:16:23;;;;;;;50.53;46.58;;;;;;;10.70;100.00;100694.75;5074752;28;20071;-90
2023/07/17 03:18:48;;;;;;;47.83;44.17;;;;;;;10.74;100.00;100703.31;5023759;28;20061;-87
2023/07/17 03:21:14;;;;;;;49.15;45.40;;;;;;;10.64;100.00;100694.63;5058455;28;20020;-94
2023/07/17 03:23:39;;;;;;;47.70;44.15;;;;;;;10.55;100.00;100691.16;5041777;28;20033;-89
2023/07/17 03:26:05;;;;;;;47.50;43.95;;;;;;;10.62;100.00;100707.44;5074827;28;20115;-89
2023/07/17 03:28:31;;;;;;;48.63;44.97;;;;;;;10.48;100.00;100698.28;5075182;28;20074;-86
2023/07/17 03:30:56;;;;;;;50.03;46.08;;;;;;;10.31;100.00;100684.91;5074047;28;20046;-89
2023/07/17 03:33:22;;;;;;;49.33;45.50;;;;;;;10.09;100.00;100667.69;5058280;28;20031;-89
2023/07/17 03:35:47;;;;;;;50.10;46.15;;;;;;;10.34;100.00;100710.59;5074551;28;20041;-92
2023/07/17 03:38:13;;;;;;;52.15;47.90;;;;;;;10.33;100.00;100714.31;5058476;28;20109;-88
2023/07/17 03:40:39;;;;;;;53.45;48.90;;;;;;;10.13;100.00;100708.47;5057819;28;20041;-91
2023/07/17 03:43:04;;;;;;;51.92;47.70;;;;;;;10.10;100.00;100720.38;5075664;28;20036;-89
2023/07/17 03:45:30;;;;;;;52.25;48.00;;;;;;;10.09;100.00;100724.09;5058121;28;20071;-87
2023/07/17 03:47:55;;;;;;;55.72;50.95;;;;;;;10.06;100.00;100718.25;5074656;28;20028;-89
2023/07/17 03:50:21;;;;;;;56.42;51.40;;;;;;;10.18;100.00;100729.44;5058166;28;20044;-90
2023/07/17 03:52:47;;;;;;;54.90;50.20;;;;;;;10.27;100.00;100731.97;5074433;28;20029;-87
2023/07/17 03:55:12;;;;;;;52.08;47.88;;;;;;;10.33;100.00;100728.56;5054598;28;20079;-92
2023/07/17 03:57:38;;;;;;;51.85;47.67;;;;;;;10.26;100.00;100724.03;5038273;28;20094;-86
2023/07/17 04:00:08;;;;;;;51.95;47.75;;;;;;;10.23;100.00;100729.75;5071190;28;20032;-92
2023/07/17 04:02:33;;;;;;;53.20;48.80;;;;;;;10.13;100.00;100729.97;5038826;28;20041;-92
2023/07/17 04:05:00;;;;;;;52.53;48.25;;;;;;;10.06;100.00;100719.09;5059568;28;20467;-89
2023/07/17 04:07:26;;;;;;;51.88;47.65;;;;;;;10.03;100.00;100713.19;5076021;28;20033;-89
2023/07/17 04:09:51;;;;;;;52.03;47.78;;;;;;;10.17;100.00;100735.84;5058129;28;20495;-86
2023/07/17 04:12:17;;;;;;;50.72;46.67;;;;;;;10.24;100.00;100723.38;5057767;28;20089;-87
2023/07/17 04:14:42;;;;;;;51.30;47.20;;;;;;;10.34;100.00;100742.84;5041385;28;20081;-90
2023/07/17 04:17:08;;;;;;;51.53;47.38;;;;;;;10.18;100.00;100727.59;5057317;28;20039;-90
2023/07/17 04:19:34;;;;;;;52.25;48.00;;;;;;;10.02;100.00;100723.13;5074250;28;20093;-89
2023/07/17 04:21:59;;;;;;;53.70;49.25;;;;;;;10.04;100.00;100731.00;5074381;28;20025;-91
2023/07/17 04:24:25;;;;;;;54.47;49.92;;;;;;;9.90;100.00;100728.03;5074557;28;20028;-89
2023/07/17 04:26:52;;;;;;;55.42;50.67;;;;;;;9.79;100.00;100724.84;5073563;28;20043;-91
2023/07/17 04:29:22;;;;;;;57.60;52.47;;;;;;;9.89;100.00;100761.25;5057927;28;20036;-89
2023/07/17 04:31:48;;;;;;;57.65;52.50;;;;;;;9.74;100.00;100727.22;5057856;28;20177;-89
2023/07/17 04:34:14;;;;;;;56.92;51.92;;;;;;;9.97;100.00;100757.72;5057020;28;20194;-88
2023/07/17 04:36:40;;;;;;;55.95;51.15;;;;;;;9.98;100.00;100727.16;5057985;28;20126;-91
2023/07/17 04:39:06;;;;;;;53.05;48.70;;;;;;;10.31;100.00;100759.31;5073727;28;20112;-88
2023/07/17 04:41:31;;;;;;;51.88;47.72;;;;;;;10.48;100.00;100766.31;5040582;28;20144;-91
2023/07/17 04:43:57;;;;;;;49.55;45.70;;;;;;;10.54;100.00;100760.22;5057187;28;20030;-91
2023/07/17 04:46:23;;;;;;;49.05;45.30;;;;;;;10.69;100.00;100767.53;5073990;28;20412;-90
2023/07/17 04:48:49;;;;;;;47.70;44.10;;;;;;;10.72;100.00;100762.66;5073388;28;20062;-88
2023/07/17 04:51:14;;;;;;;46.25;42.90;;;;;;;10.79;100.00;100779.75;5057244;28;20519;-87
2023/07/17 04:53:40;;;;;;;43.50;40.45;;;;;;;10.80;100.00;100775.22;5074848;28;20040;-90
2023/07/17 04:56:06;;;;;;;43.65;40.55;;;;;;;10.71;100.00;100763.66;5073900;28;20037;-89
2023/07/17 04:58:34;;;;;;;41.33;38.58;;;;;;;10.84;100.00;100776.53;5074075;28;20043;-94
2023/07/17 05:01:01;;;;;;;41.28;38.53;;;;;;;10.89;100.00;100784.06;5056834;28;20098;-91
2023/07/17 05:03:27;;;;;;;40.22;37.58;;;;;;;10.89;100.00;100784.91;5073896;28;20612;-91
2023/07/17 05:05:53;;;;;;;38.88;36.33;;;;;;;10.81;100.00;100771.50;5056997;28;20043;-88
2023/07/17 05:08:20;;;;;;;37.40;35.05;;;;;;;10.96;100.00;100791.25;5073215;28;20044;-88
2023/07/17 05:10:59;;;;;;;35.72;33.55;;;;;;;10.94;100.00;100781.69;5040345;28;20044;-89
2023/07/17 05:13:26;;;;;;;34.72;32.60;;;;;;;10.98;100.00;100785.69;5040320;28;20383;-91
2023/07/17 05:15:52;;;;;;;34.60;32.47;;;;;;;11.05;100.00;100797.44;5073751;28;20024;-87
2023/07/17 05:18:18;;;;;;;32.83;30.88;;;;;;;11.09;100.00;100803.31;5073478;28;20028;-96
2023/07/17 05:20:44;;;;;;;32.17;30.20;;;;;;;11.10;100.00;100810.34;5048197;28;20033;-88
2023/07/17 05:23:11;;;;;;;30.42;28.67;;;;;;;11.13;100.00;100804.59;5053294;28;20024;-87
2023/07/17 05:25:36;;;;;;;30.42;28.65;;;;;;;11.16;100.00;100805.09;5037050;28;20039;-91
2023/07/17 05:28:03;;;;;;;29.83;28.10;;;;;;;11.16;100.00;100801.56;5019960;28;20033;-89
2023/07/17 05:30:31;;;;;;;29.58;27.88;;;;;;;11.10;100.00;100799.59;5053176;28;20029;-89
2023/07/17 05:32:58;;;;;;;28.23;26.65;;;;;;;11.23;100.00;100824.91;5037494;28;20063;-88
2023/07/17 05:35:23;;;;;;;32.63;30.67;;;;;;;11.27;100.00;100819.97;5073356;28;20355;-89
2023/07/17 05:37:49;;;;;;;31.02;29.27;;;;;;;11.30;100.00;100819.66;5056511;28;20093;-86
2023/07/17 05:40:15;;;;;;;28.95;27.30;;;;;;;11.39;100.00;100829.31;5073032;28;20548;-88
2023/07/17 05:42:40;;;;;;;28.20;26.58;;;;;;;11.46;100.00;100824.06;5056020;28;20036;-87
2023/07/17 05:45:07;;;;;;;27.13;25.63;;;;;;;11.54;100.00;100831.25;5052030;28;20035;-89
2023/07/17 05:47:32;;;;;;;28.10;26.55;;;;;;;11.55;100.00;100824.84;5057186;28;20036;-92
2023/07/17 05:49:58;;;;;;;23.63;22.35;;;;;;;11.60;100.00;100830.53;5077254;28;20058;-89
2023/07/17 05:52:25;;;;;;;21.23;20.13;;;;;;;11.73;100.00;100841.53;5060425;28;20471;-90
2023/07/17 05:54:51;;;;;;;22.10;20.85;;;;;;;11.85;100.00;100839.22;5060532;28;20127;-87
2023/07/17 05:57:17;;;;;;;22.38;21.13;;;;;;;11.79;100.00;100819.22;5076277;28;20124;-91
2023/07/17 05:59:45;;;;;;;19.60;18.60;;;;;;;11.83;100.00;100833.19;5077868;28;20032;-90
2023/07/17 06:02:11;;;;;;;17.58;16.67;;;;;;;11.91;100.00;100848.47;5043575;28;20123;-94
2023/07/17 06:04:36;;;;;;;15.80;15.00;;;;;;;11.88;100.00;100842.44;5077821;28;20108;-91
2023/07/17 06:07:03;;;;;;;16.52;15.68;;;;;;;11.84;100.00;100835.69;5084240;28;20032;-94
2023/07/17 06:09:34;;;;;;;15.02;14.23;;;;;;;11.86;100.00;100831.00;5067076;28;20402;-90
2023/07/17 06:12:01;;;;;;;14.15;13.35;;;;;;;11.93;100.00;100841.88;5083611;28;20386;-89
2023/07/17 06:14:27;;;;;;;13.50;12.75;;;;;;;12.04;100.00;100848.66;5063951;28;20111;-93
2023/07/17 06:16:53;;;;;;;14.10;13.38;;;;;;;12.16;100.00;100851.78;5039182;28;20495;-90
2023/07/17 06:19:18;;;;;;;11.32;10.73;;;;;;;12.23;100.00;100858.94;5057054;28;20025;-90
2023/07/17 06:21:44;;;;;;;10.25;9.73;;;;;;;12.33;100.00;100864.03;5060604;28;20037;-91
2023/07/17 06:24:10;;;;;;;10.48;9.85;;;;;;;12.35;100.00;100867.41;5063063;28;20384;-89
2023/07/17 06:26:36;;;;;;;9.13;8.68;;;;;;;12.40;100.00;100862.28;5053786;28;20052;-91
2023/07/17 06:29:10;;;;;;;7.90;7.53;;;;;;;12.49;100.00;100866.59;5060395;28;20467;-92
2023/07/17 06:31:36;;;;;;;8.48;8.05;;;;;;;12.53;100.00;100869.75;5044422;28;20041;-89
2023/07/17 06:34:02;;;;;;;9.52;9.07;;;;;;;12.62;100.00;100875.88;5076790;28;20037;-89
2023/07/17 06:36:28;;;;;;;9.27;8.65;;;;;;;12.66;100.00;100878.00;5059103;28;20127;-93
2023/07/17 06:38:53;;;;;;;6.63;6.22;;;;;;;12.51;100.00;100851.03;5053228;28;20490;-89
2023/07/17 06:41:19;;;;;;;8.13;7.68;;;;;;;12.85;100.00;100889.25;5056541;28;20025;-90
2023/07/17 06:43:45;;;;;;;7.35;6.95;;;;;;;12.78;100.00;100889.19;5070514;28;20036;-89
2023/07/17 06:46:10;;;;;;;6.07;5.78;;;;;;;12.60;100.00;100865.28;5055665;28;20119;-87
2023/07/17 06:48:36;;;;;;;7.15;6.70;;;;;;;12.73;100.00;100895.13;5056191;28;20115;-89
2023/07/17 06:51:05;;;;;;;6.95;6.63;;;;;;;12.64;100.00;100882.75;5056432;28;20029;-91
2023/07/17 06:53:31;;;;;;;6.68;6.38;;;;;;;12.73;100.00;100891.63;5072209;28;20035;-87
2023/07/17 06:55:58;;;;;;;6.85;6.53;;;;;;;12.85;100.00;100895.50;5055966;28;20099;-92
2023/07/17 06:58:24;;;;;;;7.63;7.22;;;;;;;12.85;100.00;100883.88;5056052;28;20408;-91
2023/07/17 07:00:59;;;;;;;6.85;6.53;;;;;;;13.00;100.00;100892.78;5075315;28;20032;-89
2023/07/17 07:03:26;;;;;;;7.65;7.22;;;;;;;13.02;100.00;100898.84;5039036;28;20179;-89
2023/07/17 07:06:00;;;;;;;7.93;7.53;;;;;;;13.16;100.00;100910.63;5056135;28;20037;-90
2023/07/17 07:08:27;;;;;;;7.63;7.20;;;;;;;13.41;100.00;100922.78;5039531;28;20033;-91
2023/07/17 07:10:54;;;;;;;6.32;6.03;;;;;;;13.73;100.00;100926.03;5039521;28;20032;-91
2023/07/17 07:13:21;;;;;;;6.93;6.57;;;;;;;14.39;100.00;100924.97;5055523;28;20045;-92
2023/07/17 07:15:47;;;;;;;9.32;8.85;;;;;;;14.97;100.00;100911.19;5022939;28;20083;-87
2023/07/17 07:18:13;;;;;;;5.88;5.57;;;;;;;15.27;100.00;100919.84;5031938;28;20090;-89
2023/07/17 07:20:39;;;;;;;5.32;5.03;;;;;;;15.45;100.00;100914.69;5038864;28;20033;-90
2023/07/17 07:23:05;;;;;;;5.97;5.65;;;;;;;15.64;100.00;100913.09;5038937;28;20032;-89
2023/07/17 07:25:31;;;;;;;6.13;5.70;;;;;;;16.03;100.00;100953.00;5068685;28;20045;-87
2023/07/17 07:27:59;;;;;;;10.82;10.15;;;;;;;16.11;100.00;100929.44;5042136;28;20382;-90
2023/07/17 07:30:25;;;;;;;11.80;11.10;;;;;;;16.38;100.00;100951.97;5075591;28;20468;-89
2023/07/17 07:32:50;;;;;;;13.85;13.10;;;;;;;16.43;100.00;100944.91;5058367;28;20228;-87
2023/07/17 07:35:16;;;;;;;15.38;14.35;;;;;;;16.58;100.00;100947.38;5042369;28;20029;-89
2023/07/17 07:37:42;;;;;;;21.70;20.50;;;;;;;16.90;100.00;100929.38;5075116;28;20051;-93
2023/07/17 07:40:11;;;;;;;20.58;19.38;;;;;;;17.29;100.00;100937.59;5058838;28;20051;-92
2023/07/17 07:42:37;;;;;;;27.75;26.10;;;;;;;17.42;100.00;100942.97;5039575;28;20102;-95
2023/07/17 07:45:04;;;;;;;24.85;23.40;;;;;;;17.47;100.00;100926.84;5039998;28;20033;-86
2023/07/17 07:47:30;;;;;;;28.55;26.80;;;;;;;17.69;100.00;100951.00;5055303;28;20115;-89
2023/07/17 07:49:56;;;;;;;28.08;26.42;;;;;;;17.85;100.00;100980.41;5056247;28;20072;-92
2023/07/17 07:52:21;;;;;;;23.95;22.38;;;;;;;17.46;100.00;100936.03;5040519;28;20060;-94
2023/07/17 07:54:47;;;;;;;18.80;17.67;;;;;;;17.53;100.00;100949.63;5057019;28;20033;-95
2023/07/17 07:57:13;;;;;;;13.20;12.45;;;;;;;17.73;100.00;100934.03;5042460;28;20032;-95
2023/07/17 07:59:38;;;;;;;17.98;16.88;;;;;;;18.16;100.00;100965.16;5041693;28;20025;-92
2023/07/17 08:02:05;;;;;;;23.90;22.45;;;;;;;18.36;100.00;100964.97;5044812;28;20024;-95
2023/07/17 08:04:30;;;;;;;19.00;17.90;;;;;;;18.69;100.00;101000.09;5065584;28;20036;-88
2023/07/17 08:06:56;;;;;;;20.40;19.30;;;;;;;17.83;100.00;100990.69;5050976;28;20037;-91
2023/07/17 08:09:28;;;;;;;21.58;20.27;;;;;;;17.04;100.00;100981.81;5037695;28;20040;-95
2023/07/17 08:11:55;;;;;;;41.60;38.85;;;;;;;16.53;100.00;100970.78;5037446;28;20041;-89
2023/07/17 08:14:21;;;;;;;35.05;32.80;;;;;;;16.57;100.00;101005.44;5063107;28;20032;-92
2023/07/17 08:16:47;;;;;;;33.75;31.58;;;;;;;16.53;100.00;101006.06;5073117;28;20036;-87
2023/07/17 08:19:13;;;;;;;33.45;31.30;;;;;;;16.23;100.00;100973.91;5039964;28;20036;-93
2023/07/17 08:21:39;;;;;;;31.23;29.25;;;;;;;16.41;100.00;100984.16;5073094;28;20029;-92
2023/07/17 08:24:05;;;;;;;28.30;26.55;;;;;;;16.39;100.00;100989.78;5057374;28;20036;-88
2023/07/17 08:26:31;;;;;;;29.92;28.08;;;;;;;16.31;100.00;100995.41;5020835;28;20424;-88
2023/07/17 08:28:57;;;;;;;31.10;29.15;;;;;;;16.33;100.00;101008.78;5070283;28;20037;-89
2023/07/17 08:31:22;;;;;;;32.35;30.40;;;;;;;16.15;100.00;101002.06;5020937;28;20383;-92
2023/07/17 08:33:48;;;;;;;29.83;27.98;;;;;;;16.12;100.00;100983.50;5055273;28;20029;-90
2023/07/17 08:36:13;;;;;;;31.83;29.83;;;;;;;16.31;100.00;101002.72;5020757;28;20460;-89
2023/07/17 08:38:39;;;;;;;28.77;27.02;;;;;;;16.45;100.00;101007.09;5057096;28;20043;-88
2023/07/17 08:41:06;;;;;;;31.08;29.15;;;;;;;16.20;100.00;100994.16;5040740;28;20031;-88
2023/07/17 08:43:33;;;;;;;32.35;30.40;;;;;;;15.90;100.00;100998.25;5057233;28;20032;-88
2023/07/17 08:45:58;;;;;;;31.20;29.35;;;;;;;15.61;100.00;101003.78;5076199;28;20033;-90
2023/07/17 08:48:25;;;;;;;30.77;28.92;;;;;;;15.36;100.00;101030.56;5079631;28;20029;-88
2023/07/17 08:50:51;;;;;;;34.13;31.95;;;;;;;15.20;100.00;101052.56;5057413;28;20135;-88
2023/07/17 08:53:20;;;;;;;34.03;31.88;;;;;;;14.82;100.00;101017.75;5078313;28;20055;-88
2023/07/17 08:55:47;;;;;;;35.30;33.10;;;;;;;14.84;100.00;101048.13;5041363;28;20090;-85
2023/07/17 08:58:13;;;;;;;35.88;33.35;;;;;;;14.81;100.00;101059.38;5071301;28;20025;-86
2023/07/17 09:00:42;;;;;;;33.03;31.00;;;;;;;14.80;100.00;101057.72;5040630;28;20037;-94
2023/07/17 09:03:08;;;;;;;33.47;31.42;;;;;;;14.91;100.00;101051.75;5057034;28;20060;-93
2023/07/17 09:05:34;;;;;;;35.22;33.05;;;;;;;15.01;100.00;101050.56;5057149;28;20064;-90
2023/07/17 09:07:59;;;;;;;35.03;32.85;;;;;;;15.08;100.00;101057.72;5056659;28;20029;-91
2023/07/17 09:10:25;;;;;;;33.33;31.27;;;;;;;15.16;100.00;101046.72;5074323;28;20035;-88
2023/07/17 09:12:58;;;;;;;28.40;26.73;;;;;;;15.57;100.00;101053.19;5059475;28;20521;-89
2023/07/17 09:15:28;;;;;;;36.03;33.78;;;;;;;15.91;100.00;101059.59;5039687;28;20093;-87
2023/07/17 09:17:57;;;;;;;29.13;27.35;;;;;;;16.56;100.00;101060.75;5038060;28;20090;-92
2023/07/17 09:20:26;;;;;;;24.13;22.73;;;;;;;17.90;100.00;101045.06;5037132;28;20468;-93
2023/07/17 09:22:59;;;;;;;17.52;16.55;;;;;;;18.70;100.00;101048.06;5038558;28;20071;-88
2023/07/17 09:25:31;;;;;;;18.40;17.10;;;;;;;19.95;100.00;101074.25;5073066;28;20467;-87
2023/07/17 09:27:57;;;;;;;16.23;15.23;;;;;;;20.58;100.00;101059.28;5047353;28;20058;-93
2023/07/17 09:30:25;;;;;;;8.50;8.00;;;;;;;19.71;100.00;101057.78;5043075;28;20028;-88
2023/07/17 09:32:51;;;;;;;7.57;7.13;;;;;;;19.18;100.00;101071.97;5044024;28;20024;-90
2023/07/17 09:35:23;;;;;;;6.07;5.68;;;;;;;18.99;100.00;101062.94;5059417;28;20028;-93
2023/07/17 09:37:50;;;;;;;5.60;5.28;;;;;;;19.22;100.00;101081.38;5042611;28;20036;-93
2023/07/17 09:40:17;;;;;;;6.18;5.60;;;;;;;19.41;100.00;101075.94;5072821;28;20058;-93
2023/07/17 09:42:44;;;;;;;4.43;4.13;;;;;;;19.18;100.00;101071.97;5055331;28;20140;-94
2023/07/17 09:45:11;;;;;;;4.97;4.68;;;;;;;19.08;100.00;101077.13;5040582;28;20025;-93
2023/07/17 09:47:38;;;;;;;5.53;5.18;;;;;;;18.94;100.00;101070.94;5057277;28;20459;-92
2023/07/17 09:50:05;;;;;;;4.82;4.53;;;;;;;18.86;100.00;101082.13;5057018;28;20071;-94
2023/07/17 09:52:31;;;;;;;6.15;5.68;;;;;;;18.74;100.00;101065.66;5056463;28;20036;-93
2023/07/17 09:55:00;;;;;;;6.68;6.20;;;;;;;19.00;100.00;101075.50;5040403;28;20433;-94
2023/07/17 09:57:29;;;;;;;6.20;5.80;;;;;;;18.71;100.00;101055.19;5057073;28;20372;-93
2023/07/17 09:59:57;;;;;;;6.70;6.20;;;;;;;17.97;100.00;101052.13;5074194;28;20020;-95
2023/07/17 10:02:38;;;;;;;6.25;5.90;;;;;;;17.43;100.00;101068.84;5040311;28;20094;-94
2023/07/17 10:05:05;;;;;;;9.20;8.68;;;;;;;17.21;100.00;101068.28;5049890;28;20460;-95
2023/07/17 10:07:33;;;;;;;6.95;6.53;;;;;;;18.07;100.00;101086.19;5036756;28;20428;-93
2023/07/17 10:09:59;;;;;;;8.15;7.68;;;;;;;20.02;100.00;101046.88;5053178;28;20112;-93
2023/07/17 10:12:25;;;;;;;6.45;6.03;;;;;;;20.27;100.00;101093.13;5053372;28;20060;-94
2023/07/17 10:14:53;;;;;;;6.05;5.68;;;;;;;20.24;100.00;101058.94;5037484;28;20116;-95
2023/07/17 10:17:30;;;;;;;5.32;4.90;;;;;;;21.08;100.00;101078.00;5021413;28;20025;-95
2023/07/17 10:20:23;;;;;;;5.28;4.88;;;;;;;21.74;100.00;101073.19;5053446;28;20407;-94
2023/07/17 10:22:50;;;;;;;4.32;4.05;;;;;;;22.23;100.00;101076.38;5037301;28;20062;-94
2023/07/17 10:25:18;;;;;;;4.18;3.90;;;;;;;21.88;100.00;101093.72;5036452;28;20033;-94
2023/07/17 10:27:46;;;;;;;5.10;4.75;;;;;;;22.46;100.00;101093.75;5057923;28;20028;-93
2023/07/17 10:30:27;;;;;;;5.45;5.07;;;;;;;21.55;100.00;101086.19;5045754;28;20082;-94
2023/07/17 10:33:08;;;;;;;5.63;5.20;;;;;;;20.55;100.00;101100.75;5056182;28;20029;-95
2023/07/17 10:35:50;;;;;;;5.88;5.43;;;;;;;19.88;100.00;101114.47;5057138;28;20040;-93
2023/07/17 10:38:21;;;;;;;9.30;8.70;;;;;;;19.27;100.00;101107.97;5054477;28;20033;-93
2023/07/17 10:40:46;;;;;;;11.48;10.73;;;;;;;18.68;100.00;101110.09;5074756;28;20032;-90
2023/07/17 10:43:15;;;;;;;13.38;12.52;;;;;;;18.22;100.00;101105.78;5076017;28;20040;-93
2023/07/17 10:45:40;;;;;;;13.88;13.02;;;;;;;17.65;100.00;101107.47;5043221;28;20033;-92
2023/07/17 10:48:06;;;;;;;17.90;16.80;;;;;;;17.09;100.00;101119.69;5076362;28;20090;-92
2023/07/17 10:50:32;;;;;;;19.88;18.70;;;;;;;16.65;100.00;101124.69;5076319;28;20478;-91
2023/07/17 10:53:02;;;;;;;28.77;26.88;;;;;;;16.39;100.00;101128.19;5059358;28;20119;-92
2023/07/17 10:55:28;;;;;;;37.80;35.38;;;;;;;16.17;100.00;101132.94;5028150;28;20549;-92
2023/07/17 10:57:56;;;;;;;42.03;39.20;;;;;;;16.31;100.00;101133.81;5023367;28;20071;-91
2023/07/17 11:00:22;;;;;;;45.20;42.10;;;;;;;16.89;100.00;101136.00;5038952;28;20518;-92
2023/07/17 11:02:47;;;;;;;41.35;38.55;;;;;;;18.29;100.00;101125.66;5025866;28;20061;-94